createdAt,value
2023-04-29T00:00:30.165Z,8.52
2023-04-29T00:02:36.073Z,8.51
2023-04-29T00:04:41.824Z,8.50
2023-04-29T00:06:52.844Z,8.49
2023-04-29T00:08:57.882Z,8.49
2023-04-29T00:11:04.319Z,8.49
2023-04-29T00:13:09.372Z,8.49
2023-04-29T00:15:14.746Z,8.47
2023-04-29T00:17:20.950Z,8.44
2023-04-29T00:19:25.976Z,8.42
2023-04-29T00:21:31.119Z,8.42
2023-04-29T00:23:39.402Z,8.36
2023-04-29T00:25:44.550Z,8.35
2023-04-29T00:27:49.899Z,8.31
2023-04-29T00:29:55.055Z,8.36
2023-04-29T00:32:00.393Z,8.32
2023-04-29T00:34:06.224Z,8.28
2023-04-29T00:36:11.370Z,8.27
2023-04-29T00:38:16.682Z,8.29
2023-04-29T00:40:24.635Z,8.30
2023-04-29T00:42:30.471Z,8.24
2023-04-29T00:44:38.257Z,8.19
2023-04-29T00:46:43.466Z,8.19
2023-04-29T00:48:48.755Z,8.19
2023-04-29T00:50:54.597Z,8.20
2023-04-29T00:52:59.690Z,8.18
2023-04-29T00:55:05.859Z,8.18
2023-04-29T00:57:13.791Z,8.16
2023-04-29T00:59:21.921Z,8.18
2023-04-29T01:01:27.488Z,8.14
2023-04-29T01:03:33.541Z,8.14
2023-04-29T01:05:39.159Z,8.15
2023-04-29T01:07:55.606Z,8.14
2023-04-29T01:10:06.932Z,8.16
2023-04-29T01:12:23.932Z,8.14
2023-04-29T01:14:32.450Z,8.14
2023-04-29T01:16:44.030Z,8.11
2023-04-29T01:18:54.325Z,8.09
2023-04-29T01:21:01.037Z,8.10
2023-04-29T01:23:05.910Z,8.11
2023-04-29T01:25:13.871Z,8.11
2023-04-29T01:27:30.527Z,8.10
2023-04-29T01:29:43.614Z,8.14
2023-04-29T01:32:01.385Z,8.11
2023-04-29T01:34:12.525Z,8.11
2023-04-29T01:36:29.252Z,8.12
2023-04-29T01:38:40.123Z,8.12
2023-04-29T01:40:57.038Z,8.11
2023-04-29T01:43:05.738Z,8.10
2023-04-29T01:45:13.830Z,8.16
2023-04-29T01:47:22.192Z,8.14
2023-04-29T01:49:27.997Z,8.12
2023-04-29T01:51:34.438Z,8.16
2023-04-29T01:53:40.782Z,8.17
2023-04-29T01:55:49.862Z,8.17
2023-04-29T01:57:54.888Z,8.18
2023-04-29T02:00:02.920Z,8.20
2023-04-29T02:02:10.571Z,8.18
2023-04-29T02:04:15.638Z,8.22
2023-04-29T02:06:20.843Z,8.24
2023-04-29T02:08:26.080Z,8.25
2023-04-29T02:10:31.383Z,8.23
2023-04-29T02:12:39.018Z,8.26
2023-04-29T02:14:44.067Z,8.26
2023-04-29T02:16:52.523Z,8.28
2023-04-29T02:18:57.586Z,8.29
2023-04-29T02:21:04.391Z,8.32
2023-04-29T02:23:09.477Z,8.31
2023-04-29T02:25:15.126Z,8.32
2023-04-29T02:27:20.277Z,8.36
2023-04-29T02:29:30.146Z,8.39
2023-04-29T02:31:35.792Z,8.39
2023-04-29T02:33:42.736Z,8.42
2023-04-29T02:35:49.970Z,8.41
2023-04-29T02:37:55.037Z,8.43
2023-04-29T02:40:00.113Z,8.40
2023-04-29T02:42:05.932Z,8.40
2023-04-29T02:44:11.277Z,8.46
2023-04-29T02:46:21.392Z,8.44
2023-04-29T02:48:27.584Z,8.45
2023-04-29T02:50:33.092Z,8.44
2023-04-29T02:52:39.815Z,8.44
2023-04-29T02:54:44.970Z,8.46
2023-04-29T02:56:50.210Z,8.46
2023-04-29T02:58:55.260Z,8.47
2023-04-29T03:01:00.313Z,8.48
2023-04-29T03:03:08.758Z,8.52
2023-04-29T03:05:14.272Z,8.51
2023-04-29T03:07:19.945Z,8.48
2023-04-29T03:09:24.968Z,8.50
2023-04-29T03:11:29.926Z,8.49
2023-04-29T03:13:35.886Z,8.51
2023-04-29T03:15:41.330Z,8.51
2023-04-29T03:17:46.711Z,8.50
2023-04-29T03:19:54.826Z,8.50
2023-04-29T03:22:00.000Z,8.49
2023-04-29T03:24:06.030Z,8.49
2023-04-29T03:26:11.911Z,8.51
2023-04-29T03:28:16.968Z,8.51
2023-04-29T03:30:24.756Z,8.52
2023-04-29T03:32:29.920Z,8.50
2023-04-29T03:34:35.698Z,8.51
2023-04-29T03:36:43.447Z,8.53
2023-04-29T03:38:48.446Z,8.53
2023-04-29T03:40:53.831Z,8.54
2023-04-29T03:42:58.817Z,8.54
2023-04-29T03:45:04.548Z,8.55
2023-04-29T03:47:09.838Z,8.56
2023-04-29T03:49:14.844Z,8.57
2023-04-29T03:51:19.946Z,8.58
2023-04-29T03:53:27.537Z,8.60
2023-04-29T03:55:32.576Z,8.62
2023-04-29T03:57:42.455Z,8.61
2023-04-29T03:59:50.778Z,8.60
2023-04-29T04:01:56.147Z,8.61
2023-04-29T04:04:01.387Z,8.61
2023-04-29T04:06:06.911Z,8.63
2023-04-29T04:08:11.976Z,8.63
2023-04-29T04:10:19.992Z,8.62
2023-04-29T04:12:24.922Z,8.61
2023-04-29T04:14:29.849Z,8.62
2023-04-29T04:16:34.844Z,8.66
2023-04-29T04:18:39.937Z,8.64
2023-04-29T04:20:44.893Z,8.66
2023-04-29T04:22:49.928Z,8.67
2023-04-29T04:24:54.965Z,8.68
2023-04-29T04:27:02.622Z,8.69
2023-04-29T04:29:08.694Z,8.68
2023-04-29T04:31:15.084Z,8.73
2023-04-29T04:33:20.292Z,8.73
2023-04-29T04:35:25.393Z,8.73
2023-04-29T04:37:30.421Z,8.82
2023-04-29T04:39:35.874Z,8.74
2023-04-29T04:41:41.942Z,8.73
2023-04-29T04:43:51.932Z,8.74
2023-04-29T04:45:57.572Z,8.77
2023-04-29T04:48:02.828Z,8.79
2023-04-29T04:50:09.365Z,8.77
2023-04-29T04:52:14.809Z,8.77
2023-04-29T04:54:20.108Z,8.81
2023-04-29T04:56:25.238Z,8.76
2023-04-29T04:58:31.744Z,8.79
2023-04-29T05:00:39.454Z,8.82
2023-04-29T05:02:44.887Z,8.83
2023-04-29T05:04:50.184Z,8.86
2023-04-29T05:06:55.140Z,8.85
2023-04-29T05:09:00.162Z,8.86
2023-04-29T05:11:06.107Z,8.86
2023-04-29T05:13:11.062Z,8.86
2023-04-29T05:15:19.361Z,8.85
2023-04-29T05:17:27.075Z,8.87
2023-04-29T05:19:32.258Z,8.90
2023-04-29T05:21:37.655Z,8.90
2023-04-29T05:23:43.663Z,8.92
2023-04-29T05:25:48.908Z,8.95
2023-04-29T05:27:53.939Z,9.02
2023-04-29T05:29:59.167Z,8.99
2023-04-29T05:32:04.511Z,9.07
2023-04-29T05:34:12.402Z,9.03
2023-04-29T05:36:20.231Z,9.11
2023-04-29T05:38:29.322Z,9.05
2023-04-29T05:40:34.540Z,9.13
2023-04-29T05:42:39.887Z,9.14
2023-04-29T05:44:45.123Z,9.22
2023-04-29T05:46:52.264Z,9.21
2023-04-29T05:48:57.487Z,9.29
2023-04-29T05:51:06.606Z,9.23
2023-04-29T05:53:11.557Z,9.25
2023-04-29T05:55:16.563Z,9.25
2023-04-29T05:57:24.632Z,9.26
2023-04-29T05:59:29.511Z,9.28
2023-04-29T06:01:34.818Z,9.33
2023-04-29T06:03:40.213Z,9.27
2023-04-29T06:05:45.916Z,9.31
2023-04-29T06:07:53.714Z,9.35
2023-04-29T06:09:59.949Z,9.39
2023-04-29T06:12:06.272Z,9.45
2023-04-29T06:14:11.264Z,9.39
2023-04-29T06:16:16.313Z,9.34
2023-04-29T06:18:22.675Z,9.48
2023-04-29T06:20:28.203Z,9.49
2023-04-29T06:22:33.358Z,9.53
2023-04-29T06:24:41.467Z,9.51
2023-04-29T06:26:46.987Z,9.55
2023-04-29T06:28:55.245Z,9.57
2023-04-29T06:31:00.712Z,9.68
2023-04-29T06:33:06.446Z,9.88
2023-04-29T06:35:12.188Z,9.91
2023-04-29T06:37:18.907Z,9.96
2023-04-29T06:39:23.893Z,10.14
2023-04-29T06:41:32.300Z,10.59
2023-04-29T06:43:37.516Z,11.15
2023-04-29T06:45:42.863Z,11.53
2023-04-29T06:47:48.353Z,11.28
2023-04-29T06:49:53.925Z,11.71
2023-04-29T06:51:59.938Z,12.11
2023-04-29T06:54:05.665Z,12.32
2023-04-29T06:56:16.690Z,12.22
2023-04-29T06:58:28.592Z,12.65
2023-04-29T07:00:34.711Z,12.70
2023-04-29T07:02:39.924Z,12.57
2023-04-29T07:04:45.270Z,12.00
2023-04-29T07:06:51.410Z,12.66
2023-04-29T07:08:57.148Z,12.91
2023-04-29T07:11:02.248Z,12.93
2023-04-29T07:13:07.231Z,13.09
2023-04-29T07:15:15.364Z,13.11
2023-04-29T07:17:21.013Z,12.95
2023-04-29T07:19:26.335Z,12.97
2023-04-29T07:21:31.794Z,12.94
2023-04-29T07:23:36.789Z,13.32
2023-04-29T07:25:41.758Z,13.14
2023-04-29T07:27:46.740Z,12.56
2023-04-29T07:29:54.634Z,13.22
2023-04-29T07:32:02.332Z,12.68
2023-04-29T07:34:10.440Z,13.16
2023-04-29T07:36:15.500Z,13.87
2023-04-29T07:38:21.744Z,14.35
2023-04-29T07:40:26.973Z,14.48
2023-04-29T07:42:32.019Z,13.84
2023-04-29T07:44:37.142Z,13.10
2023-04-29T07:46:42.147Z,13.26
2023-04-29T07:48:49.912Z,13.18
2023-04-29T07:50:55.002Z,13.93
2023-04-29T07:53:02.584Z,14.83
2023-04-29T07:55:08.639Z,14.16
2023-04-29T07:57:13.623Z,13.09
2023-04-29T07:59:21.626Z,12.87
2023-04-29T08:01:26.598Z,12.15
2023-04-29T08:03:31.673Z,13.11
2023-04-29T08:05:40.119Z,13.29
2023-04-29T08:07:45.283Z,13.91
2023-04-29T08:09:50.333Z,13.75
2023-04-29T08:11:55.510Z,13.21
2023-04-29T08:14:00.674Z,13.17
2023-04-29T08:16:05.860Z,13.18
2023-04-29T08:18:11.179Z,13.07
2023-04-29T08:20:16.654Z,12.92
2023-04-29T08:22:24.503Z,13.21
2023-04-29T08:24:29.937Z,13.18
2023-04-29T08:26:34.986Z,13.18
2023-04-29T08:28:43.775Z,12.30
2023-04-29T08:30:50.986Z,12.55
2023-04-29T08:32:56.080Z,12.34
2023-04-29T08:35:03.116Z,12.51
2023-04-29T08:37:08.383Z,12.17
2023-04-29T08:39:16.082Z,12.33
2023-04-29T08:41:28.554Z,12.38
2023-04-29T08:43:34.910Z,12.79
2023-04-29T08:45:40.779Z,13.32
2023-04-29T08:47:46.623Z,13.43
2023-04-29T08:49:54.527Z,13.29
2023-04-29T08:51:59.608Z,13.60
2023-04-29T08:54:04.632Z,12.98
2023-04-29T08:56:20.869Z,12.66
2023-04-29T08:58:32.908Z,12.80
2023-04-29T09:00:39.161Z,12.56
2023-04-29T09:02:48.681Z,12.88
2023-04-29T09:05:04.071Z,13.75
2023-04-29T09:07:10.925Z,12.97
2023-04-29T09:09:20.833Z,13.52
2023-04-29T09:11:30.419Z,14.42
2023-04-29T09:13:36.599Z,15.09
2023-04-29T09:15:43.084Z,15.70
2023-04-29T09:17:49.657Z,15.30
2023-04-29T09:19:57.219Z,15.21
2023-04-29T09:22:03.391Z,15.77
2023-04-29T09:24:08.488Z,16.41
2023-04-29T09:26:13.597Z,16.84
2023-04-29T09:28:21.232Z,15.82
2023-04-29T09:30:27.149Z,15.73
2023-04-29T09:32:32.300Z,15.91
2023-04-29T09:34:41.106Z,15.18
2023-04-29T09:36:48.396Z,14.87
2023-04-29T09:38:58.482Z,15.31
2023-04-29T09:41:16.028Z,15.04
2023-04-29T09:43:24.243Z,15.19
2023-04-29T09:45:39.546Z,16.01
2023-04-29T09:47:45.107Z,15.96
2023-04-29T09:49:50.298Z,15.40
2023-04-29T09:51:59.989Z,15.73
2023-04-29T09:54:23.083Z,16.83
2023-04-29T09:56:31.029Z,16.59
2023-04-29T09:58:40.725Z,16.43
2023-04-29T10:00:45.760Z,17.48
2023-04-29T10:02:54.957Z,15.88
2023-04-29T10:05:01.694Z,15.42
2023-04-29T10:07:07.782Z,15.28
2023-04-29T10:09:16.357Z,15.58
2023-04-29T10:11:21.929Z,15.92
2023-04-29T10:13:28.963Z,15.74
2023-04-29T10:15:43.229Z,14.70
2023-04-29T10:17:52.493Z,15.18
2023-04-29T10:20:06.455Z,15.91
2023-04-29T10:22:20.094Z,16.65
2023-04-29T10:24:26.959Z,16.75
2023-04-29T10:26:32.926Z,17.40
2023-04-29T10:28:40.703Z,17.05
2023-04-29T10:30:50.749Z,17.53
2023-04-29T10:32:57.888Z,17.13
2023-04-29T10:35:06.437Z,16.78
2023-04-29T10:37:12.903Z,16.41
2023-04-29T10:39:27.259Z,16.85
2023-04-29T10:41:39.240Z,15.61
2023-04-29T10:43:44.575Z,15.83
2023-04-29T10:45:53.948Z,17.27
2023-04-29T10:48:15.168Z,17.50
2023-04-29T10:50:22.222Z,17.33
2023-04-29T10:52:27.428Z,17.65
2023-04-29T10:54:32.403Z,17.60
2023-04-29T10:56:45.654Z,18.13
2023-04-29T10:58:50.743Z,18.15
2023-04-29T11:00:58.189Z,17.98
2023-04-29T11:03:05.452Z,18.30
2023-04-29T11:05:12.906Z,18.50
2023-04-29T11:07:32.222Z,18.43
2023-04-29T11:09:39.755Z,18.63
2023-04-29T11:11:46.710Z,16.84
2023-04-29T11:13:55.767Z,17.86
2023-04-29T11:16:10.979Z,17.67
2023-04-29T11:18:16.643Z,18.17
2023-04-29T11:20:24.849Z,18.22
2023-04-29T11:22:31.055Z,17.15
2023-04-29T11:24:37.933Z,16.10
2023-04-29T11:26:43.079Z,16.26
2023-04-29T11:28:52.123Z,16.72
2023-04-29T11:30:57.327Z,16.81
2023-04-29T11:33:05.436Z,16.60
2023-04-29T11:35:12.431Z,16.93
2023-04-29T11:37:27.433Z,17.45
2023-04-29T11:39:32.436Z,17.18
2023-04-29T11:41:40.302Z,17.77
2023-04-29T11:43:45.571Z,17.99
2023-04-29T11:45:50.877Z,17.67
2023-04-29T11:47:57.428Z,16.60
2023-04-29T11:50:11.077Z,16.28
2023-04-29T11:52:16.646Z,16.99
2023-04-29T11:54:24.943Z,17.28
2023-04-29T11:56:29.969Z,17.26
2023-04-29T11:58:35.066Z,16.68
2023-04-29T12:00:41.265Z,16.21
2023-04-29T12:02:48.821Z,16.26
2023-04-29T12:04:54.702Z,15.74
2023-04-29T12:07:03.331Z,15.91
2023-04-29T12:09:08.860Z,16.24
2023-04-29T12:11:14.167Z,16.65
2023-04-29T12:13:20.036Z,16.93
2023-04-29T12:15:26.600Z,16.67
2023-04-29T12:17:31.973Z,16.40
2023-04-29T12:19:38.862Z,15.83
2023-04-29T12:21:53.984Z,15.78
2023-04-29T12:24:07.601Z,15.08
2023-04-29T12:26:15.359Z,15.00
2023-04-29T12:28:27.046Z,15.29
2023-04-29T12:30:32.820Z,15.82
2023-04-29T12:32:42.195Z,16.34
2023-04-29T12:34:49.959Z,16.54
2023-04-29T12:36:54.968Z,16.41
2023-04-29T12:39:03.032Z,16.02
2023-04-29T12:41:08.313Z,16.26
2023-04-29T12:43:15.041Z,16.42
2023-04-29T12:45:32.402Z,16.56
2023-04-29T12:47:38.275Z,16.46
2023-04-29T12:49:45.581Z,16.17
2023-04-29T12:51:50.913Z,16.74
2023-04-29T12:53:56.156Z,17.13
2023-04-29T12:56:03.793Z,16.80
2023-04-29T12:58:09.876Z,16.30
2023-04-29T13:00:16.912Z,17.22
2023-04-29T13:02:24.854Z,16.11
2023-04-29T13:04:30.475Z,16.29
2023-04-29T13:06:39.589Z,16.10
2023-04-29T13:08:44.946Z,15.90
2023-04-29T13:10:49.958Z,16.47
2023-04-29T13:12:57.857Z,16.20
2023-04-29T13:15:02.803Z,15.89
2023-04-29T13:17:08.134Z,15.71
2023-04-29T13:21:26.186Z,15.84
2023-04-29T13:23:31.648Z,16.32
2023-04-29T13:25:40.347Z,16.17
2023-04-29T13:27:45.789Z,16.34
2023-04-29T13:29:54.027Z,17.00
2023-04-29T13:31:59.165Z,16.38
2023-04-29T13:34:04.430Z,16.94
2023-04-29T13:36:10.637Z,17.05
2023-04-29T13:38:15.987Z,16.28
2023-04-29T13:40:21.591Z,16.15
2023-04-29T13:42:27.345Z,16.60
2023-04-29T13:44:42.487Z,16.28
2023-04-29T13:46:54.245Z,16.76
2023-04-29T13:56:15.386Z,16.50
2023-04-29T13:58:40.045Z,16.34
2023-04-29T14:02:28.886Z,16.22
2023-04-29T14:04:34.087Z,16.83
2023-04-29T14:06:39.252Z,16.82
2023-04-29T14:08:44.580Z,16.52
2023-04-29T14:10:50.927Z,16.46
2023-04-29T14:12:56.191Z,16.33
2023-04-29T14:15:01.398Z,16.62
2023-04-29T14:17:06.313Z,16.11
2023-04-29T14:19:14.351Z,15.99
2023-04-29T14:21:22.754Z,16.03
2023-04-29T14:23:27.672Z,15.72
2023-04-29T14:25:33.947Z,15.80
2023-04-29T14:27:39.156Z,16.15
2023-04-29T14:29:44.130Z,16.13
2023-04-29T14:31:52.279Z,15.91
2023-04-29T14:33:57.456Z,15.62
2023-04-29T14:36:05.103Z,15.69
2023-04-29T14:38:10.692Z,15.57
2023-04-29T14:40:16.346Z,15.55
2023-04-29T14:42:21.882Z,15.38
2023-04-29T14:44:26.885Z,15.64
2023-04-29T14:46:32.303Z,15.69
2023-04-29T14:48:40.514Z,16.30
2023-04-29T14:50:45.986Z,16.09
2023-04-29T14:52:53.989Z,15.87
2023-04-29T14:54:58.853Z,15.68
2023-04-29T14:57:03.883Z,15.86
2023-04-29T14:59:09.075Z,15.63
2023-04-29T15:01:14.140Z,15.63
2023-04-29T15:03:23.209Z,15.93
2023-04-29T15:05:31.348Z,16.67
2023-04-29T15:07:36.971Z,16.67
2023-04-29T15:09:44.977Z,15.87
2023-04-29T15:11:50.458Z,16.26
2023-04-29T15:13:55.589Z,15.89
2023-04-29T15:16:00.613Z,15.56
2023-04-29T15:18:06.601Z,16.01
2023-04-29T15:20:13.623Z,15.88
2023-04-29T15:22:20.312Z,15.98
2023-04-29T15:24:25.125Z,16.19
2023-04-29T15:26:32.644Z,16.56
2023-04-29T15:28:39.603Z,16.93
2023-04-29T15:30:44.497Z,16.33
2023-04-29T15:32:52.103Z,16.26
2023-04-29T15:34:58.394Z,16.43
2023-04-29T15:37:03.600Z,16.02
2023-04-29T15:39:11.232Z,15.54
2023-04-29T15:41:16.486Z,15.37
2023-04-29T15:43:24.474Z,15.41
2023-04-29T15:45:29.482Z,15.31
2023-04-29T15:47:34.524Z,15.18
2023-04-29T15:49:41.257Z,15.44
2023-04-29T15:51:46.370Z,15.13
2023-04-29T15:53:51.879Z,15.36
2023-04-29T15:55:57.010Z,15.34
2023-04-29T15:58:01.927Z,15.58
2023-04-29T16:00:12.712Z,15.31
2023-04-29T16:02:17.744Z,15.54
2023-04-29T16:04:26.071Z,15.57
2023-04-29T16:06:31.309Z,15.87
2023-04-29T16:08:36.627Z,15.78
2023-04-29T16:10:41.867Z,15.50
2023-04-29T16:12:46.791Z,14.99
2023-04-29T16:14:51.769Z,14.81
2023-04-29T16:16:59.686Z,14.84
2023-04-29T16:19:04.662Z,14.65
2023-04-29T16:21:10.329Z,14.73
2023-04-29T16:23:15.280Z,14.33
2023-04-29T16:25:20.697Z,14.48
2023-04-29T16:27:30.216Z,14.19
2023-04-29T16:29:35.254Z,14.20
2023-04-29T16:31:41.614Z,14.23
2023-04-29T16:33:52.942Z,14.10
2023-04-29T16:35:58.462Z,14.07
2023-04-29T16:38:04.523Z,14.01
2023-04-29T16:40:12.406Z,13.88
2023-04-29T16:42:17.721Z,13.60
2023-04-29T16:44:26.853Z,13.49
2023-04-29T16:46:32.920Z,13.76
2023-04-29T16:48:38.095Z,13.44
2023-04-29T16:50:46.262Z,13.42
2023-04-29T16:52:52.539Z,13.32
2023-04-29T16:54:57.977Z,13.45
2023-04-29T16:57:03.400Z,13.18
2023-04-29T16:59:08.777Z,13.08
2023-04-29T17:01:14.305Z,12.99
2023-04-29T17:03:19.489Z,12.77
2023-04-29T17:05:26.229Z,12.64
2023-04-29T17:07:34.775Z,12.77
2023-04-29T17:09:40.717Z,12.65
2023-04-29T17:11:45.773Z,12.49
2023-04-29T17:13:50.835Z,12.58
2023-04-29T17:15:55.890Z,12.65
2023-04-29T17:18:01.144Z,12.62
2023-04-29T17:20:07.832Z,12.72
2023-04-29T17:22:13.244Z,12.96
2023-04-29T17:24:21.016Z,13.04
2023-04-29T17:26:26.144Z,13.04
2023-04-29T17:28:31.395Z,13.10
2023-04-29T17:30:36.603Z,13.02
2023-04-29T17:32:44.111Z,12.75
2023-04-29T17:34:49.588Z,12.64
2023-04-29T17:36:55.132Z,12.58
2023-04-29T17:39:00.325Z,12.58
2023-04-29T17:41:08.155Z,12.48
2023-04-29T17:43:13.419Z,12.62
2023-04-29T17:45:21.155Z,12.50
2023-04-29T17:47:26.693Z,12.49
2023-04-29T17:49:32.060Z,12.23
2023-04-29T17:51:38.352Z,12.22
2023-04-29T17:53:43.442Z,12.05
2023-04-29T17:55:48.963Z,11.92
2023-04-29T17:57:58.599Z,12.01
2023-04-29T18:00:05.042Z,12.10
2023-04-29T18:02:11.163Z,12.10
2023-04-29T18:04:16.412Z,11.98
2023-04-29T18:06:22.355Z,11.99
2023-04-29T18:08:27.513Z,11.91
2023-04-29T18:10:32.660Z,11.85
2023-04-29T18:12:38.002Z,11.81
2023-04-29T18:14:46.990Z,11.85
2023-04-29T18:16:53.781Z,11.86
2023-04-29T18:18:59.116Z,11.86
2023-04-29T18:21:04.153Z,11.83
2023-04-29T18:23:09.304Z,11.77
2023-04-29T18:25:14.523Z,11.67
2023-04-29T18:27:20.226Z,11.55
2023-04-29T18:29:25.721Z,11.55
2023-04-29T18:31:33.930Z,11.50
2023-04-29T18:33:39.270Z,11.42
2023-04-29T18:35:44.685Z,11.45
2023-04-29T18:37:49.819Z,11.41
2023-04-29T18:39:55.169Z,11.30
2023-04-29T18:42:01.649Z,11.26
2023-04-29T18:44:08.382Z,11.28
2023-04-29T18:46:13.666Z,11.23
2023-04-29T18:48:23.933Z,11.16
2023-04-29T18:50:32.325Z,11.10
2023-04-29T18:52:38.285Z,11.04
2023-04-29T18:54:43.342Z,11.18
2023-04-29T18:56:51.304Z,11.10
2023-04-29T18:58:56.741Z,10.99
2023-04-29T19:01:03.427Z,10.93
2023-04-29T19:03:08.788Z,10.90
2023-04-29T19:05:16.868Z,10.94
2023-04-29T19:07:24.758Z,10.93
2023-04-29T19:09:32.139Z,10.82
2023-04-29T19:11:38.206Z,10.72
2023-04-29T19:13:43.360Z,10.72
2023-04-29T19:15:50.917Z,10.70
2023-04-29T19:17:56.348Z,10.60
2023-04-29T19:20:01.496Z,10.53
2023-04-29T19:22:09.501Z,10.48
2023-04-29T19:24:14.433Z,10.41
2023-04-29T19:26:21.830Z,10.33
2023-04-29T19:28:27.245Z,10.32
2023-04-29T19:30:33.129Z,10.34
2023-04-29T19:32:40.006Z,10.36
2023-04-29T19:34:45.042Z,10.29
2023-04-29T19:36:50.772Z,10.26
2023-04-29T19:38:58.638Z,10.20
2023-04-29T19:41:03.694Z,10.15
2023-04-29T19:43:09.468Z,10.12
2023-04-29T19:45:15.456Z,10.07
2023-04-29T19:47:24.709Z,10.01
2023-04-29T19:49:30.082Z,10.07
2023-04-29T19:51:37.311Z,10.07
2023-04-29T19:53:42.701Z,10.07
2023-04-29T19:55:52.013Z,10.12
2023-04-29T19:57:57.676Z,10.02
2023-04-29T20:00:02.916Z,9.94
2023-04-29T20:02:09.483Z,9.96
2023-04-29T20:04:14.679Z,9.86
2023-04-29T20:06:22.160Z,9.78
2023-04-29T20:08:27.771Z,9.67
2023-04-29T20:10:33.251Z,9.62
2023-04-29T20:12:42.148Z,9.54
2023-04-29T20:14:47.711Z,9.50
2023-04-29T20:16:54.350Z,9.45
2023-04-29T20:18:59.592Z,9.40
2023-04-29T20:21:05.559Z,9.35
2023-04-29T20:23:10.579Z,9.34
2023-04-29T20:25:15.688Z,9.33
2023-04-29T20:27:23.177Z,9.36
2023-04-29T20:29:30.840Z,9.32
2023-04-29T20:31:35.934Z,9.26
2023-04-29T20:33:42.102Z,9.20
2023-04-29T20:35:47.396Z,9.21
2023-04-29T20:37:52.731Z,9.16
2023-04-29T20:40:00.543Z,9.10
2023-04-29T20:42:06.402Z,9.13
2023-04-29T20:44:12.913Z,9.10
2023-04-29T20:46:22.229Z,9.07
2023-04-29T20:48:30.426Z,9.05
2023-04-29T20:50:35.890Z,8.99
2023-04-29T20:52:44.200Z,8.94
2023-04-29T20:54:52.037Z,8.88
2023-04-29T20:56:57.554Z,8.84
2023-04-29T20:59:06.712Z,8.84
2023-04-29T21:01:12.984Z,8.81
2023-04-29T21:03:22.577Z,8.73
2023-04-29T21:05:27.881Z,8.73
2023-04-29T21:07:33.126Z,8.71
2023-04-29T21:09:39.525Z,8.64
2023-04-29T21:11:44.742Z,8.60
2023-04-29T21:13:51.270Z,8.55
2023-04-29T21:15:56.567Z,8.53
2023-04-29T21:18:04.654Z,8.51
2023-04-29T21:20:13.986Z,8.50
2023-04-29T21:22:19.809Z,8.52
2023-04-29T21:24:25.002Z,8.54
2023-04-29T21:26:30.079Z,8.53
2023-04-29T21:28:35.143Z,8.54
2023-04-29T21:30:41.183Z,8.58
2023-04-29T21:32:46.433Z,8.56
2023-04-29T21:34:52.044Z,8.58
2023-04-29T21:37:00.116Z,8.56
2023-04-29T21:39:06.478Z,8.51
2023-04-29T21:41:22.908Z,8.49
2023-04-29T21:43:30.243Z,8.49
2023-04-29T21:45:35.629Z,8.45
2023-04-29T21:47:46.128Z,8.46
2023-04-29T21:49:52.065Z,8.40
2023-04-29T21:52:02.119Z,8.40
2023-04-29T21:54:08.854Z,8.35
2023-04-29T21:56:14.069Z,8.30
2023-04-29T21:58:21.615Z,8.23
2023-04-29T22:00:34.128Z,8.22
2023-04-29T22:02:43.716Z,8.17
2023-04-29T22:04:51.674Z,8.11
2023-04-29T22:06:59.656Z,8.11
2023-04-29T22:09:05.426Z,8.09
2023-04-29T22:11:10.865Z,8.09
2023-04-29T22:13:16.210Z,8.10
2023-04-29T22:15:28.879Z,8.07
2023-04-29T22:17:34.820Z,8.03
2023-04-29T22:19:40.105Z,8.00
2023-04-29T22:21:47.614Z,8.04
2023-04-29T22:23:55.595Z,8.01
2023-04-29T22:26:03.156Z,8.03
2023-04-29T22:28:21.127Z,8.01
2023-04-29T22:30:27.383Z,7.97
2023-04-29T22:32:33.127Z,7.95
2023-04-29T22:34:39.160Z,7.93
2023-04-29T22:36:44.327Z,7.94
2023-04-29T22:38:49.846Z,7.91
2023-04-29T22:40:57.944Z,7.90
2023-04-29T22:43:03.913Z,7.89
2023-04-29T22:45:11.312Z,7.90
2023-04-29T22:47:17.804Z,7.92
2023-04-29T22:49:23.527Z,7.90
2023-04-29T22:51:32.545Z,7.90
2023-04-29T22:53:38.722Z,7.86
2023-04-29T22:55:44.133Z,7.83
2023-04-29T22:57:56.678Z,7.81
2023-04-29T23:00:01.968Z,7.81
2023-04-29T23:02:08.243Z,7.85
2023-04-29T23:04:13.496Z,7.86
2023-04-29T23:06:21.739Z,7.86
2023-04-29T23:08:26.938Z,7.83
2023-04-29T23:10:32.092Z,7.76
2023-04-29T23:12:37.218Z,7.79
2023-04-29T23:14:47.445Z,7.73
2023-04-29T23:16:54.840Z,7.69
2023-04-29T23:19:00.504Z,7.66
2023-04-29T23:21:08.060Z,7.63
2023-04-29T23:23:17.445Z,7.65
2023-04-29T23:25:27.135Z,7.65
2023-04-29T23:27:32.837Z,7.63
2023-04-29T23:29:38.633Z,7.61
2023-04-29T23:31:47.261Z,7.57
2023-04-29T23:33:54.409Z,7.54
2023-04-29T23:36:00.025Z,7.51
2023-04-29T23:38:05.791Z,7.48
2023-04-29T23:40:12.262Z,7.43
2023-04-29T23:42:17.618Z,7.37
2023-04-29T23:44:23.016Z,7.36
2023-04-29T23:46:28.174Z,7.35
2023-04-29T23:48:39.065Z,7.36
2023-04-29T23:50:44.277Z,7.34
2023-04-29T23:52:50.409Z,7.33
2023-04-29T23:54:55.445Z,7.28
2023-04-29T23:57:00.532Z,7.28
2023-04-29T23:59:05.660Z,7.26
